sensor_id;sensor_type;location;lat;lon;timestamp;P1;durP1;ratioP1;P2;durP2;ratioP2
9506;SDS011;4791;47.528;9.372;2023-06-14T00:13:10;5.25;;;3.05;;
9506;SDS011;4791;47.528;9.372;2023-06-14T00:28:11;4.88;;;3.25;;
9506;SDS011;4791;47.528;9.372;2023-06-14T00:43:16;4.95;;;4.03;;
9506;SDS011;4791;47.528;9.372;2023-06-14T00:58:16;6.82;;;3.70;;
9506;SDS011;4791;47.528;9.372;2023-06-14T01:13:21;4.22;;;3.05;;
9506;SDS011;4791;47.528;9.372;2023-06-14T01:28:23;5.82;;;4.15;;
9506;SDS011;4791;47.528;9.372;2023-06-14T01:43:31;5.57;;;4.00;;
9506;SDS011;4791;47.528;9.372;2023-06-14T01:58:33;10.45;;;4.22;;
9506;SDS011;4791;47.528;9.372;2023-06-14T02:13:33;4.18;;;3.70;;
9506;SDS011;4791;47.528;9.372;2023-06-14T02:28:34;7.80;;;3.92;;
9506;SDS011;4791;47.528;9.372;2023-06-14T02:43:35;7.05;;;4.05;;
9506;SDS011;4791;47.528;9.372;2023-06-14T02:58:38;7.75;;;4.55;;
9506;SDS011;4791;47.528;9.372;2023-06-14T03:13:41;7.38;;;4.25;;
9506;SDS011;4791;47.528;9.372;2023-06-14T03:28:41;11.50;;;4.65;;
9506;SDS011;4791;47.528;9.372;2023-06-14T03:43:41;5.93;;;4.63;;
9506;SDS011;4791;47.528;9.372;2023-06-14T03:58:42;5.82;;;4.03;;
9506;SDS011;4791;47.528;9.372;2023-06-14T04:13:42;6.60;;;3.88;;
9506;SDS011;4791;47.528;9.372;2023-06-14T04:28:45;7.60;;;4.47;;
9506;SDS011;4791;47.528;9.372;2023-06-14T04:43:46;12.85;;;4.80;;
9506;SDS011;4791;47.528;9.372;2023-06-14T04:58:48;11.63;;;5.13;;
9506;SDS011;4791;47.528;9.372;2023-06-14T05:13:48;7.47;;;3.92;;
9506;SDS011;4791;47.528;9.372;2023-06-14T05:28:49;11.30;;;4.50;;
9506;SDS011;4791;47.528;9.372;2023-06-14T05:43:50;4.57;;;3.95;;
9506;SDS011;4791;47.528;9.372;2023-06-14T05:58:50;4.78;;;3.85;;
9506;SDS011;4791;47.528;9.372;2023-06-14T06:13:51;10.00;;;4.28;;
9506;SDS011;4791;47.528;9.372;2023-06-14T06:28:53;7.05;;;4.05;;
9506;SDS011;4791;47.528;9.372;2023-06-14T06:43:54;7.10;;;4.63;;
9506;SDS011;4791;47.528;9.372;2023-06-14T06:58:57;9.75;;;4.65;;
9506;SDS011;4791;47.528;9.372;2023-06-14T07:13:59;9.77;;;4.03;;
9506;SDS011;4791;47.528;9.372;2023-06-14T07:29:00;4.38;;;3.53;;
9506;SDS011;4791;47.528;9.372;2023-06-14T07:44:01;5.95;;;3.83;;
9506;SDS011;4791;47.528;9.372;2023-06-14T07:59:01;6.40;;;3.40;;
9506;SDS011;4791;47.528;9.372;2023-06-14T08:14:01;7.65;;;3.15;;
9506;SDS011;4791;47.528;9.372;2023-06-14T08:29:02;10.07;;;2.90;;
9506;SDS011;4791;47.528;9.372;2023-06-14T08:44:02;6.88;;;3.63;;
9506;SDS011;4791;47.528;9.372;2023-06-14T08:59:03;6.10;;;3.42;;
9506;SDS011;4791;47.528;9.372;2023-06-14T09:14:06;6.68;;;3.20;;
9506;SDS011;4791;47.528;9.372;2023-06-14T09:29:09;4.15;;;2.67;;
9506;SDS011;4791;47.528;9.372;2023-06-14T09:44:14;5.63;;;2.83;;
9506;SDS011;4791;47.528;9.372;2023-06-14T09:59:16;7.37;;;3.00;;
9506;SDS011;4791;47.528;9.372;2023-06-14T10:14:20;5.40;;;2.88;;
9506;SDS011;4791;47.528;9.372;2023-06-14T10:29:21;5.43;;;3.28;;
9506;SDS011;4791;47.528;9.372;2023-06-14T10:59:21;7.32;;;2.90;;
9506;SDS011;4791;47.528;9.372;2023-06-14T11:14:22;5.78;;;2.97;;
9506;SDS011;4791;47.528;9.372;2023-06-14T11:29:22;3.50;;;3.10;;
9506;SDS011;4791;47.528;9.372;2023-06-14T11:44:25;4.70;;;3.20;;
9506;SDS011;4791;47.528;9.372;2023-06-14T11:59:29;6.00;;;2.95;;
9506;SDS011;4791;47.528;9.372;2023-06-14T12:14:31;8.95;;;3.63;;
9506;SDS011;4791;47.528;9.372;2023-06-14T12:29:31;6.60;;;2.92;;
9506;SDS011;4791;47.528;9.372;2023-06-14T12:44:32;4.32;;;2.60;;
9506;SDS011;4791;47.528;9.372;2023-06-14T12:59:35;4.03;;;2.45;;
9506;SDS011;4791;47.528;9.372;2023-06-14T13:14:36;9.70;;;2.95;;
9506;SDS011;4791;47.528;9.372;2023-06-14T13:29:36;9.98;;;3.00;;
9506;SDS011;4791;47.528;9.372;2023-06-14T13:44:37;5.88;;;3.65;;
9506;SDS011;4791;47.528;9.372;2023-06-14T13:59:37;4.50;;;2.30;;
9506;SDS011;4791;47.528;9.372;2023-06-14T14:14:37;3.20;;;2.63;;
9506;SDS011;4791;47.528;9.372;2023-06-14T14:29:42;3.30;;;2.27;;
9506;SDS011;4791;47.528;9.372;2023-06-14T14:44:43;6.53;;;2.50;;
9506;SDS011;4791;47.528;9.372;2023-06-14T14:59:44;6.90;;;2.47;;
9506;SDS011;4791;47.528;9.372;2023-06-14T15:14:44;7.97;;;2.53;;
9506;SDS011;4791;47.528;9.372;2023-06-14T15:29:45;3.95;;;2.78;;
9506;SDS011;4791;47.528;9.372;2023-06-14T15:44:46;5.13;;;2.42;;
9506;SDS011;4791;47.528;9.372;2023-06-14T15:59:48;3.05;;;2.10;;
9506;SDS011;4791;47.528;9.372;2023-06-14T16:14:48;6.10;;;2.67;;
9506;SDS011;4791;47.528;9.372;2023-06-14T16:29:49;5.13;;;2.63;;
9506;SDS011;4791;47.528;9.372;2023-06-14T16:44:49;4.10;;;2.63;;
9506;SDS011;4791;47.528;9.372;2023-06-14T16:59:50;9.02;;;3.20;;
9506;SDS011;4791;47.528;9.372;2023-06-14T17:14:50;4.55;;;3.00;;
9506;SDS011;4791;47.528;9.372;2023-06-14T17:29:55;3.72;;;2.90;;
9506;SDS011;4791;47.528;9.372;2023-06-14T17:44:56;4.35;;;2.78;;
9506;SDS011;4791;47.528;9.372;2023-06-14T18:00:00;4.88;;;3.10;;
9506;SDS011;4791;47.528;9.372;2023-06-14T18:15:04;4.28;;;3.25;;
9506;SDS011;4791;47.528;9.372;2023-06-14T18:30:05;3.72;;;2.45;;
9506;SDS011;4791;47.528;9.372;2023-06-14T18:45:07;2.90;;;2.42;;
9506;SDS011;4791;47.528;9.372;2023-06-14T19:00:08;7.88;;;3.05;;
9506;SDS011;4791;47.528;9.372;2023-06-14T19:15:08;8.43;;;2.92;;
9506;SDS011;4791;47.528;9.372;2023-06-14T19:30:09;4.50;;;3.33;;
9506;SDS011;4791;47.528;9.372;2023-06-14T19:45:10;4.00;;;3.05;;
9506;SDS011;4791;47.528;9.372;2023-06-14T20:00:13;4.75;;;3.30;;
9506;SDS011;4791;47.528;9.372;2023-06-14T20:15:14;3.17;;;2.72;;
9506;SDS011;4791;47.528;9.372;2023-06-14T20:30:14;7.78;;;3.60;;
9506;SDS011;4791;47.528;9.372;2023-06-14T20:45:17;4.05;;;3.10;;
9506;SDS011;4791;47.528;9.372;2023-06-14T21:00:17;5.38;;;3.30;;
9506;SDS011;4791;47.528;9.372;2023-06-14T21:15:18;5.43;;;3.80;;
9506;SDS011;4791;47.528;9.372;2023-06-14T21:30:20;3.60;;;3.20;;
9506;SDS011;4791;47.528;9.372;2023-06-14T22:00:34;5.00;;;3.35;;
9506;SDS011;4791;47.528;9.372;2023-06-14T22:15:35;4.50;;;3.42;;
9506;SDS011;4791;47.528;9.372;2023-06-14T22:30:36;5.30;;;3.90;;
9506;SDS011;4791;47.528;9.372;2023-06-14T22:45:36;5.30;;;3.50;;
9506;SDS011;4791;47.528;9.372;2023-06-14T23:00:37;5.60;;;3.88;;
9506;SDS011;4791;47.528;9.372;2023-06-14T23:15:37;4.53;;;3.90;;
9506;SDS011;4791;47.528;9.372;2023-06-14T23:30:37;5.72;;;4.35;;
9506;SDS011;4791;47.528;9.372;2023-06-14T23:45:38;5.70;;;4.47;;
